Hauptseite
METAR-TAF:

METAR-TAF

Flughäfen :

London Biggin Hill Airport

London Biggin Hill, England

Breite: 51-19N, Länge: 000-02E, Höhe: 183 m

Beobachtung

Neuester Wetterbericht von vor 24 Minuten, um 13:20 UTC
Wind 8 kt aus Süd/Südwest, variierte zwischen Süd/Südost und West
Temperatur 25°C
Luftfeuchtigkeit 57%
Luftdruck 1018 hPa
Sichtweite 10 km oder mehr
Aufgelockert bewölkt in der Höhe von 3700 ft

METAR: EGKB 061320Z 20008KT 150V260 9999 SCT037 25/16 Q1018

Zeit: 14:44 (13:44 UTC)

Prognose

Neuester Wetterbericht von vor 2 Stunden und 47 Minuten, um 10:57 UTC
Gültige Prognose vom 06 um 12 UTC bis 06 um 21 UTC
Wind 8 kt aus Süd/Südwest
Sichtweite 10 km oder mehr
Leicht bewölkt in der Höhe von 3000 ft

TAF: EGKB 061057Z 0612/0621 20008KT 9999 FEW030

Wetterbeobachtungen und Prognosen von mehr als 4000 Flughäfen (METAR und TAF Bericht).

Die verfügbaren Stationen werden durch gelbe und rote Markierungen auf der Karte dargestellt.

Führen Sie die Maus auf sie, um den Namen der Station zu sehen.

Darauf klicken, um die Beobachtung von Wetterbeobachtungen und Prognosen zu sehen.

Um die Karte zu ändern : klicken Sie auf den grünen Tasten mit einem schwarzen Kreuz Zum Vergrößern, auf den grünen Button mit einem Gedankenstrich zu verkleinern, oder auf die grünen Pfeile für benachbarte Karten.


METAR-TAF: